createdAt,value
2018-02-21T00:02:18.872Z,1.95
2018-02-21T00:04:48.655Z,1.83
2018-02-21T00:07:19.236Z,1.71
2018-02-21T00:09:49.305Z,1.59
2018-02-21T00:12:19.017Z,1.64
2018-02-21T00:14:48.741Z,1.61
2018-02-21T00:17:18.477Z,1.60
2018-02-21T00:19:48.360Z,1.56
2018-02-21T00:22:18.103Z,1.52
2018-02-21T00:24:47.824Z,1.51
2018-02-21T00:27:17.585Z,1.51
2018-02-21T00:29:48.026Z,1.51
2018-02-21T00:32:17.891Z,1.44
2018-02-21T00:34:47.538Z,1.36
2018-02-21T00:37:17.231Z,1.48
2018-02-21T00:39:46.953Z,1.42
2018-02-21T00:42:16.678Z,1.42
2018-02-21T00:44:46.400Z,1.42
2018-02-21T00:47:16.409Z,1.43
2018-02-21T00:49:46.120Z,1.40
2018-02-21T00:52:15.880Z,1.46
2018-02-21T00:54:45.583Z,1.39
2018-02-21T00:57:15.372Z,1.43
2018-02-21T00:59:45.896Z,1.39
2018-02-21T01:02:16.431Z,1.38
2018-02-21T01:04:46.147Z,1.32
2018-02-21T01:07:15.908Z,1.28
2018-02-21T01:09:45.638Z,1.34
2018-02-21T01:12:15.492Z,1.35
2018-02-21T01:14:45.181Z,1.28
2018-02-21T01:17:14.871Z,1.18
2018-02-21T01:19:45.387Z,1.13
2018-02-21T01:22:15.122Z,1.13
2018-02-21T01:24:44.863Z,1.17
2018-02-21T01:27:14.777Z,1.14
2018-02-21T01:29:44.489Z,1.13
2018-02-21T01:32:14.248Z,1.17
2018-02-21T01:34:44.036Z,1.12
2018-02-21T01:37:13.821Z,1.09
2018-02-21T01:39:43.577Z,1.19
2018-02-21T01:42:13.344Z,1.22
2018-02-21T01:44:43.082Z,1.20
2018-02-21T01:47:12.793Z,1.19
2018-02-21T01:49:43.050Z,1.15
2018-02-21T01:52:12.840Z,1.20
2018-02-21T01:54:42.652Z,1.26
2018-02-21T01:57:13.104Z,1.19
2018-02-21T01:59:43.520Z,1.23
2018-02-21T02:02:14.037Z,1.19
2018-02-21T02:04:43.974Z,1.20
2018-02-21T02:07:13.688Z,1.18
2018-02-21T02:09:43.693Z,1.09
2018-02-21T02:12:13.493Z,1.03
2018-02-21T02:14:44.017Z,1.05
2018-02-21T02:17:13.738Z,1.04
2018-02-21T02:19:43.600Z,1.04
2018-02-21T02:22:13.490Z,1.09
2018-02-21T02:24:43.546Z,1.15
2018-02-21T02:27:13.276Z,1.18
2018-02-21T02:29:43.067Z,1.30
2018-02-21T02:32:12.880Z,1.18
2018-02-21T02:34:43.057Z,1.12
2018-02-21T02:37:13.672Z,1.18
2018-02-21T02:39:52.836Z,1.13
2018-02-21T02:42:22.568Z,1.13
2018-02-21T02:44:53.044Z,1.13
2018-02-21T02:47:23.621Z,1.09
2018-02-21T02:49:53.308Z,1.09
2018-02-21T02:52:23.880Z,1.08
2018-02-21T02:54:53.562Z,1.08
2018-02-21T02:57:24.012Z,1.04
2018-02-21T02:59:54.504Z,1.04
2018-02-21T03:02:24.242Z,1.08
2018-02-21T03:04:54.032Z,1.02
2018-02-21T03:07:23.847Z,1.06
2018-02-21T03:09:53.588Z,1.08
2018-02-21T03:12:23.444Z,1.13
2018-02-21T03:14:53.135Z,1.16
2018-02-21T03:17:22.964Z,1.05
2018-02-21T03:19:52.710Z,1.07
2018-02-21T03:22:22.372Z,1.13
2018-02-21T03:24:52.096Z,1.12
2018-02-21T03:27:21.852Z,1.11
2018-02-21T03:29:51.665Z,1.14
2018-02-21T03:32:22.098Z,1.23
2018-02-21T03:34:51.816Z,1.16
2018-02-21T03:37:21.484Z,1.36
2018-02-21T03:39:51.681Z,1.24
2018-02-21T03:42:21.536Z,1.32
2018-02-21T03:44:51.248Z,1.26
2018-02-21T03:47:21.077Z,1.18
2018-02-21T03:49:51.047Z,1.23
2018-02-21T03:52:20.870Z,1.22
2018-02-21T03:54:51.197Z,1.19
2018-02-21T03:57:21.246Z,1.30
2018-02-21T03:59:51.943Z,1.23
2018-02-21T04:02:21.689Z,1.21
2018-02-21T04:04:51.483Z,1.29
2018-02-21T04:07:21.192Z,1.37
2018-02-21T04:09:51.085Z,1.31
2018-02-21T04:12:20.860Z,1.38
2018-02-21T04:14:50.586Z,1.32
2018-02-21T04:17:20.232Z,1.34
2018-02-21T04:19:49.992Z,1.43
2018-02-21T04:22:19.967Z,1.41
2018-02-21T04:24:49.704Z,1.40
2018-02-21T04:27:19.520Z,1.37
2018-02-21T04:29:49.277Z,1.47
2018-02-21T04:32:18.972Z,1.51
2018-02-21T04:34:49.105Z,1.64
2018-02-21T04:37:18.840Z,1.61
2018-02-21T04:39:48.699Z,1.57
2018-02-21T04:42:18.412Z,1.58
2018-02-21T04:44:49.031Z,1.63
2018-02-21T04:47:18.782Z,1.58
2018-02-21T04:49:48.503Z,1.59
2018-02-21T04:52:18.240Z,1.65
2018-02-21T04:54:48.105Z,1.70
2018-02-21T04:57:17.938Z,1.72
2018-02-21T04:59:47.756Z,1.64
2018-02-21T05:02:17.465Z,1.73
2018-02-21T05:04:47.252Z,1.76
2018-02-21T05:07:16.955Z,1.85
2018-02-21T05:09:46.697Z,1.88
2018-02-21T05:12:16.878Z,1.80
2018-02-21T05:14:46.703Z,1.77
2018-02-21T05:17:16.417Z,1.68
2018-02-21T05:19:46.423Z,1.68
2018-02-21T05:22:16.908Z,1.67
2018-02-21T05:24:46.651Z,1.73
2018-02-21T05:27:16.417Z,1.74
2018-02-21T05:29:46.902Z,1.71
2018-02-21T05:32:16.676Z,1.68
2018-02-21T05:34:47.632Z,1.61
2018-02-21T05:37:17.353Z,1.56
2018-02-21T05:39:47.122Z,1.49
2018-02-21T05:42:16.868Z,1.51
2018-02-21T05:44:46.760Z,1.56
2018-02-21T05:47:16.534Z,1.54
2018-02-21T05:49:47.093Z,1.53
2018-02-21T05:52:16.819Z,1.52
2018-02-21T05:54:46.540Z,1.53
2018-02-21T05:57:16.431Z,1.47
2018-02-21T05:59:46.230Z,1.49
2018-02-21T06:02:15.977Z,1.47
2018-02-21T06:04:46.541Z,1.48
2018-02-21T06:07:16.313Z,1.39
2018-02-21T06:09:46.033Z,1.31
2018-02-21T06:12:15.737Z,1.37
2018-02-21T06:14:45.570Z,1.22
2018-02-21T06:17:16.056Z,1.31
2018-02-21T06:19:46.384Z,1.25
2018-02-21T06:22:16.090Z,1.23
2018-02-21T06:24:45.860Z,1.22
2018-02-21T06:27:15.584Z,1.11
2018-02-21T06:29:45.449Z,1.06
2018-02-21T06:32:15.136Z,1.05
2018-02-21T06:34:44.872Z,1.08
2018-02-21T06:37:14.616Z,1.08
2018-02-21T06:39:44.400Z,0.98
2018-02-21T06:42:14.320Z,0.99
2018-02-21T06:44:44.152Z,1.05
2018-02-21T06:47:13.849Z,1.02
2018-02-21T06:49:44.376Z,1.05
2018-02-21T06:52:14.941Z,0.97
2018-02-21T06:54:44.803Z,0.93
2018-02-21T06:57:14.630Z,0.93
2018-02-21T06:59:44.391Z,0.86
2018-02-21T07:02:28.374Z,0.87
2018-02-21T07:04:58.064Z,0.80
2018-02-21T07:07:28.564Z,0.76
2018-02-21T07:09:58.455Z,0.79
2018-02-21T07:12:28.266Z,0.81
2018-02-21T07:14:58.806Z,0.86
2018-02-21T07:17:29.380Z,0.87
2018-02-21T07:19:59.087Z,0.83
2018-02-21T07:22:28.905Z,0.71
2018-02-21T07:24:58.714Z,0.77
2018-02-21T07:27:29.268Z,0.79
2018-02-21T07:29:59.134Z,0.91
2018-02-21T07:32:29.039Z,0.98
2018-02-21T07:34:58.762Z,1.03
2018-02-21T07:37:28.632Z,1.10
2018-02-21T07:39:58.354Z,1.12
2018-02-21T07:42:28.150Z,0.99
2018-02-21T07:44:57.976Z,0.87
2018-02-21T07:47:27.708Z,0.87
2018-02-21T07:49:57.769Z,0.94
2018-02-21T07:52:28.971Z,0.97
2018-02-21T07:54:59.595Z,1.05
2018-02-21T07:57:29.444Z,0.98
2018-02-21T07:59:59.388Z,1.01
2018-02-21T08:02:29.128Z,1.18
2018-02-21T08:04:59.700Z,1.23
2018-02-21T08:07:30.183Z,1.37
2018-02-21T08:10:00.062Z,1.20
2018-02-21T08:12:29.782Z,1.18
2018-02-21T08:14:59.508Z,1.29
2018-02-21T08:17:29.392Z,1.37
2018-02-21T08:19:59.161Z,1.43
2018-02-21T08:22:29.044Z,1.51
2018-02-21T08:24:58.788Z,1.64
2018-02-21T08:27:29.437Z,1.75
2018-02-21T08:29:59.299Z,1.55
2018-02-21T08:32:29.171Z,1.68
2018-02-21T08:34:59.720Z,1.68
2018-02-21T08:37:30.429Z,1.87
2018-02-21T08:40:00.154Z,1.82
2018-02-21T08:42:29.858Z,1.77
2018-02-21T08:44:59.568Z,1.81
2018-02-21T08:47:29.501Z,1.90
2018-02-21T08:49:59.289Z,1.86
2018-02-21T08:52:28.994Z,1.92
2018-02-21T08:54:59.702Z,1.89
2018-02-21T08:57:29.605Z,1.94
2018-02-21T08:59:59.317Z,2.04
2018-02-21T09:02:29.039Z,2.07
2018-02-21T09:04:58.917Z,2.34
2018-02-21T09:07:28.874Z,2.35
2018-02-21T09:09:58.769Z,2.17
2018-02-21T09:12:28.424Z,2.31
2018-02-21T09:14:58.702Z,2.37
2018-02-21T09:17:28.397Z,2.52
2018-02-21T09:19:58.160Z,2.45
2018-02-21T09:22:27.880Z,2.14
2018-02-21T09:24:57.711Z,2.13
2018-02-21T09:27:28.213Z,2.31
2018-02-21T09:29:57.989Z,2.38
2018-02-21T09:32:27.702Z,2.47
2018-02-21T09:34:58.484Z,2.69
2018-02-21T09:37:28.341Z,2.68
2018-02-21T09:39:58.046Z,2.67
2018-02-21T09:42:27.716Z,2.55
2018-02-21T09:44:58.163Z,2.65
2018-02-21T09:47:28.621Z,2.84
2018-02-21T09:49:58.279Z,3.01
2018-02-21T09:52:28.004Z,2.89
2018-02-21T09:54:57.861Z,2.96
2018-02-21T09:57:28.288Z,3.04
2018-02-21T09:59:58.077Z,3.03
2018-02-21T10:02:27.810Z,3.07
2018-02-21T10:04:57.823Z,3.14
2018-02-21T10:07:27.730Z,3.17
2018-02-21T10:09:57.447Z,3.08
2018-02-21T10:12:27.126Z,3.23
2018-02-21T10:14:57.580Z,3.44
2018-02-21T10:17:27.292Z,3.41
2018-02-21T10:19:57.068Z,3.62
2018-02-21T10:22:26.753Z,3.46
2018-02-21T10:24:56.541Z,3.53
2018-02-21T10:27:26.209Z,3.55
2018-02-21T10:29:56.866Z,3.68
2018-02-21T10:32:26.535Z,3.63
2018-02-21T10:34:57.012Z,3.87
2018-02-21T10:37:26.704Z,3.90
2018-02-21T10:39:57.182Z,3.83
2018-02-21T10:42:26.928Z,3.83
2018-02-21T10:44:56.601Z,3.90
2018-02-21T10:47:27.240Z,3.91
2018-02-21T10:49:57.455Z,3.87
2018-02-21T10:52:27.177Z,4.06
2018-02-21T10:54:57.039Z,4.12
2018-02-21T10:57:26.738Z,4.17
2018-02-21T10:59:57.198Z,4.22
2018-02-21T11:02:27.033Z,4.29
2018-02-21T11:04:56.934Z,4.17
2018-02-21T11:07:26.641Z,4.43
2018-02-21T11:09:57.121Z,4.57
2018-02-21T11:12:26.836Z,4.67
2018-02-21T11:14:57.328Z,4.61
2018-02-21T11:17:26.963Z,4.65
2018-02-21T11:19:57.630Z,4.43
2018-02-21T11:22:27.348Z,4.41
2018-02-21T11:24:57.186Z,4.53
2018-02-21T11:27:26.861Z,4.50
2018-02-21T11:29:57.330Z,4.54
2018-02-21T11:32:27.130Z,4.58
2018-02-21T11:34:56.877Z,4.77
2018-02-21T11:37:26.627Z,4.83
2018-02-21T11:39:56.428Z,4.86
2018-02-21T11:42:26.146Z,4.96
2018-02-21T11:44:55.914Z,4.92
2018-02-21T11:47:25.748Z,4.86
2018-02-21T11:49:55.553Z,4.92
2018-02-21T11:52:25.368Z,4.98
2018-02-21T11:54:55.123Z,5.13
2018-02-21T11:57:24.952Z,5.06
2018-02-21T11:59:55.531Z,5.00
2018-02-21T12:02:25.333Z,5.03
2018-02-21T12:04:55.879Z,4.83
2018-02-21T12:07:25.674Z,4.92
2018-02-21T12:09:55.465Z,5.12
2018-02-21T12:12:25.562Z,4.88
2018-02-21T12:14:55.344Z,4.98
2018-02-21T12:17:25.257Z,5.07
2018-02-21T12:19:55.110Z,5.31
2018-02-21T12:22:25.660Z,5.28
2018-02-21T12:24:55.393Z,5.17
2018-02-21T12:27:25.372Z,5.35
2018-02-21T12:29:55.083Z,5.28
2018-02-21T12:32:25.025Z,5.20
2018-02-21T12:34:54.771Z,5.20
2018-02-21T12:37:24.476Z,5.20
2018-02-21T12:39:58.479Z,5.24
2018-02-21T12:42:28.544Z,5.28
2018-02-21T12:44:59.065Z,5.47
2018-02-21T12:47:28.928Z,5.56
2018-02-21T12:49:58.736Z,5.44
2018-02-21T12:52:29.260Z,5.52
2018-02-21T12:54:59.064Z,5.44
2018-02-21T12:57:28.850Z,5.56
2018-02-21T12:59:58.609Z,5.71
2018-02-21T13:02:28.413Z,5.59
2018-02-21T13:04:58.161Z,5.81
2018-02-21T13:07:28.098Z,5.76
2018-02-21T13:09:57.836Z,5.92
2018-02-21T13:12:28.391Z,6.02
2018-02-21T13:14:58.120Z,5.68
2018-02-21T13:17:27.873Z,5.75
2018-02-21T13:19:58.398Z,5.91
2018-02-21T13:22:28.141Z,5.88
2018-02-21T13:24:57.840Z,6.10
2018-02-21T13:27:27.646Z,6.23
2018-02-21T13:29:57.392Z,5.83
2018-02-21T13:32:27.140Z,6.12
2018-02-21T13:34:57.044Z,6.06
2018-02-21T13:37:26.831Z,5.93
2018-02-21T13:39:56.563Z,5.96
2018-02-21T13:42:26.401Z,6.12
2018-02-21T13:44:56.217Z,6.28
2018-02-21T13:47:26.042Z,6.55
2018-02-21T13:49:55.883Z,6.70
2018-02-21T13:52:25.623Z,6.41
2018-02-21T13:54:55.374Z,6.26
2018-02-21T13:57:25.950Z,6.11
2018-02-21T13:59:55.705Z,6.22
2018-02-21T14:02:25.584Z,6.47
2018-02-21T14:04:55.333Z,6.30
2018-02-21T14:07:25.287Z,5.94
2018-02-21T14:09:55.013Z,6.47
2018-02-21T14:12:24.760Z,6.32
2018-02-21T14:14:55.306Z,6.33
2018-02-21T14:17:25.828Z,6.19
2018-02-21T14:19:55.737Z,6.37
2018-02-21T14:22:25.450Z,6.24
2018-02-21T14:24:55.256Z,5.90
2018-02-21T14:27:24.988Z,5.87
2018-02-21T14:29:54.751Z,6.12
2018-02-21T14:32:25.234Z,6.29
2018-02-21T14:34:55.055Z,6.37
2018-02-21T14:37:24.809Z,6.40
2018-02-21T14:39:54.588Z,6.38
2018-02-21T14:42:24.371Z,6.13
2018-02-21T14:44:54.140Z,6.15
2018-02-21T14:47:23.922Z,6.04
2018-02-21T14:49:54.597Z,5.77
2018-02-21T14:52:24.707Z,5.79
2018-02-21T14:54:55.238Z,5.77
2018-02-21T14:57:25.089Z,5.88
2018-02-21T14:59:54.874Z,5.90
2018-02-21T15:02:24.786Z,5.84
2018-02-21T15:04:54.561Z,5.73
2018-02-21T15:07:25.238Z,5.69
2018-02-21T15:09:55.050Z,5.49
2018-02-21T15:12:24.952Z,5.65
2018-02-21T15:14:55.329Z,5.70
2018-02-21T15:17:25.109Z,5.71
2018-02-21T15:19:54.866Z,5.56
2018-02-21T15:22:25.040Z,5.55
2018-02-21T15:24:54.863Z,5.62
2018-02-21T15:27:24.576Z,5.66
2018-02-21T15:29:54.349Z,5.54
2018-02-21T15:32:24.253Z,5.65
2018-02-21T15:34:54.863Z,5.61
2018-02-21T15:37:24.605Z,5.64
2018-02-21T15:39:55.167Z,5.65
2018-02-21T15:42:24.989Z,5.67
2018-02-21T15:44:55.053Z,5.54
2018-02-21T15:47:24.880Z,5.48
2018-02-21T15:49:54.625Z,5.44
2018-02-21T15:52:24.355Z,5.44
2018-02-21T15:54:54.244Z,5.33
2018-02-21T15:57:24.026Z,5.34
2018-02-21T15:59:54.645Z,5.55
2018-02-21T16:02:24.367Z,5.35
2018-02-21T16:04:55.288Z,5.29
2018-02-21T16:07:24.971Z,5.24
2018-02-21T16:09:54.910Z,5.26
2018-02-21T16:12:24.720Z,5.26
2018-02-21T16:14:54.528Z,5.33
2018-02-21T16:17:25.095Z,5.19
2018-02-21T16:19:55.341Z,5.14
2018-02-21T16:22:25.101Z,5.06
2018-02-21T16:24:55.089Z,5.02
2018-02-21T16:27:25.017Z,4.96
2018-02-21T16:29:54.812Z,4.96
2018-02-21T16:32:25.880Z,4.87
2018-02-21T16:34:55.706Z,4.81
2018-02-21T16:37:25.455Z,4.80
2018-02-21T16:39:55.501Z,4.79
2018-02-21T16:42:25.534Z,4.76
2018-02-21T16:44:55.582Z,4.73
2018-02-21T16:47:26.102Z,4.69
2018-02-21T16:49:55.931Z,4.65
2018-02-21T16:52:27.134Z,4.65
2018-02-21T16:54:57.107Z,4.56
2018-02-21T16:57:26.977Z,4.58
2018-02-21T16:59:57.467Z,4.56
2018-02-21T17:02:27.266Z,4.50
2018-02-21T17:04:57.488Z,4.51
2018-02-21T17:07:28.124Z,4.51
2018-02-21T17:09:58.036Z,4.48
2018-02-21T17:12:28.625Z,4.45
2018-02-21T17:14:58.384Z,4.44
2018-02-21T17:17:28.931Z,4.33
2018-02-21T17:19:59.491Z,4.32
2018-02-21T17:22:29.271Z,4.29
2018-02-21T17:24:59.184Z,4.27
2018-02-21T17:27:28.978Z,4.23
2018-02-21T17:29:58.796Z,4.22
2018-02-21T17:32:28.520Z,4.20
2018-02-21T17:34:58.312Z,4.16
2018-02-21T17:37:28.194Z,4.14
2018-02-21T17:39:58.045Z,4.13
2018-02-21T17:42:27.995Z,4.10
2018-02-21T17:44:57.716Z,4.17
2018-02-21T17:47:28.342Z,4.10
2018-02-21T17:49:58.166Z,4.08
2018-02-21T17:52:28.951Z,4.02
2018-02-21T17:54:58.804Z,4.00
2018-02-21T17:57:28.693Z,4.02
2018-02-21T17:59:58.474Z,3.95
2018-02-21T18:02:28.354Z,3.85
2018-02-21T18:04:58.459Z,4.29
2018-02-21T18:07:28.319Z,6.47
2018-02-21T18:09:58.549Z,6.73
2018-02-21T18:12:29.174Z,7.56
2018-02-21T18:14:59.741Z,7.19
2018-02-21T18:17:29.813Z,5.22
2018-02-21T18:20:00.379Z,4.59
2018-02-21T18:22:30.559Z,4.23
2018-02-21T18:25:00.274Z,4.10
2018-02-21T18:27:30.727Z,3.97
2018-02-21T18:30:00.520Z,3.88
2018-02-21T18:32:30.741Z,3.77
2018-02-21T18:35:00.571Z,3.74
2018-02-21T18:37:30.786Z,3.71
2018-02-21T18:40:00.584Z,3.65
2018-02-21T18:42:31.386Z,3.60
2018-02-21T18:45:01.306Z,3.55
2018-02-21T18:47:31.521Z,3.55
2018-02-21T18:50:01.309Z,3.52
2018-02-21T18:52:32.957Z,3.50
2018-02-21T18:55:02.740Z,3.43
2018-02-21T18:57:32.965Z,3.66
2018-02-21T19:00:03.473Z,3.69
2018-02-21T19:02:34.067Z,3.58
2018-02-21T19:05:03.945Z,3.48
2018-02-21T19:07:34.878Z,3.45
2018-02-21T19:10:04.853Z,3.37
2018-02-21T19:12:34.861Z,3.34
2018-02-21T19:15:04.664Z,3.33
2018-02-21T19:17:34.468Z,3.30
2018-02-21T19:20:04.497Z,3.20
2018-02-21T19:22:34.239Z,3.22
2018-02-21T19:25:04.341Z,3.18
2018-02-21T19:27:34.305Z,3.17
2018-02-21T19:30:05.809Z,3.11
2018-02-21T19:32:35.643Z,3.16
2018-02-21T19:35:06.319Z,3.12
2018-02-21T19:37:36.197Z,3.10
2018-02-21T19:40:06.179Z,3.12
2018-02-21T19:42:36.174Z,3.06
2018-02-21T19:45:06.133Z,3.07
2018-02-21T19:47:35.938Z,3.04
2018-02-21T19:50:06.371Z,2.99
2018-02-21T19:52:36.952Z,3.02
2018-02-21T19:55:07.580Z,3.06
2018-02-21T19:57:37.298Z,3.02
2018-02-21T20:00:07.661Z,3.03
2018-02-21T20:02:38.844Z,2.96
2018-02-21T20:05:08.713Z,2.94
2018-02-21T20:07:38.816Z,2.96
2018-02-21T20:10:08.648Z,2.91
2018-02-21T20:12:38.746Z,3.00
2018-02-21T20:15:08.561Z,2.93
2018-02-21T20:17:38.538Z,2.90
2018-02-21T20:20:08.353Z,2.85
2018-02-21T20:22:38.257Z,2.81
2018-02-21T20:25:08.109Z,2.81
2018-02-21T20:27:38.233Z,2.72
2018-02-21T20:30:08.002Z,2.71
2018-02-21T20:32:38.527Z,2.70
2018-02-21T20:35:08.629Z,2.75
2018-02-21T20:37:38.446Z,2.65
2018-02-21T20:40:08.649Z,2.70
2018-02-21T20:42:38.455Z,2.67
2018-02-21T20:45:09.088Z,2.61
2018-02-21T20:47:38.984Z,2.66
2018-02-21T20:50:08.755Z,2.61
2018-02-21T20:52:39.086Z,2.64
2018-02-21T20:55:09.016Z,2.57
2018-02-21T20:57:45.637Z,2.58
2018-02-21T21:00:15.525Z,2.59
2018-02-21T21:02:45.401Z,2.58
2018-02-21T21:05:16.069Z,2.51
2018-02-21T21:07:45.951Z,2.49
2018-02-21T21:10:16.352Z,2.49
2018-02-21T21:12:46.438Z,2.54
2018-02-21T21:15:16.217Z,2.48
2018-02-21T21:17:46.008Z,2.45
2018-02-21T21:20:16.573Z,2.47
2018-02-21T21:22:46.316Z,2.41
2018-02-21T21:25:16.197Z,2.32
2018-02-21T21:27:46.721Z,2.31
2018-02-21T21:30:16.568Z,2.36
2018-02-21T21:32:47.057Z,2.43
2018-02-21T21:35:16.892Z,2.42
2018-02-21T21:37:46.670Z,2.31
2018-02-21T21:40:16.446Z,2.33
2018-02-21T21:42:46.210Z,2.22
2018-02-21T21:45:15.972Z,2.23
2018-02-21T21:47:45.674Z,2.24
2018-02-21T21:50:15.473Z,2.27
2018-02-21T21:52:45.282Z,2.28
2018-02-21T21:55:15.927Z,2.19
2018-02-21T21:57:45.856Z,2.14
2018-02-21T22:00:16.562Z,2.35
2018-02-21T22:02:46.357Z,2.37
2018-02-21T22:05:16.834Z,2.19
2018-02-21T22:07:46.575Z,2.14
2018-02-21T22:10:16.368Z,2.12
2018-02-21T22:12:46.271Z,2.09
2018-02-21T22:15:16.046Z,2.04
2018-02-21T22:17:45.795Z,1.93
2018-02-21T22:20:15.839Z,1.96
2018-02-21T22:22:45.568Z,1.88
2018-02-21T22:25:16.102Z,1.97
2018-02-21T22:27:45.871Z,1.91
2018-02-21T22:30:15.643Z,1.89
2018-02-21T22:32:45.312Z,1.97
2018-02-21T22:35:15.024Z,1.94
2018-02-21T22:37:44.748Z,1.96
2018-02-21T22:40:14.524Z,1.95
2018-02-21T22:42:44.774Z,1.87
2018-02-21T22:45:14.486Z,1.85
2018-02-21T22:47:44.228Z,1.82
2018-02-21T22:50:14.035Z,1.82
2018-02-21T22:52:43.787Z,1.80
2018-02-21T22:55:13.480Z,1.76
2018-02-21T22:57:43.266Z,1.76
2018-02-21T23:00:14.003Z,1.72
2018-02-21T23:05:12.777Z,1.76
2018-02-21T23:07:42.486Z,1.71
2018-02-21T23:10:12.315Z,1.67
2018-02-21T23:12:42.220Z,1.68
2018-02-21T23:15:11.920Z,1.65
2018-02-21T23:17:43.149Z,1.60
2018-02-21T23:20:12.868Z,1.59
2018-02-21T23:22:42.635Z,1.59
2018-02-21T23:25:13.132Z,1.55
2018-02-21T23:27:43.020Z,1.56
2018-02-21T23:30:12.713Z,1.50
2018-02-21T23:32:43.410Z,1.51
2018-02-21T23:35:13.126Z,1.59
2018-02-21T23:37:42.866Z,1.58
2018-02-21T23:40:12.692Z,1.53
2018-02-21T23:42:42.468Z,1.51
2018-02-21T23:45:12.293Z,1.43
2018-02-21T23:47:42.006Z,1.45
2018-02-21T23:50:11.807Z,1.45
2018-02-21T23:52:42.348Z,1.45
2018-02-21T23:55:12.804Z,1.45
2018-02-21T23:57:43.318Z,1.43
